Елизово

Карта отелей и гостиниц, располагающихся рядом с аэропортом Елизово :

Елизово
Петропавловск-Камчатский
Камчатский край 53° 10' 12.6588" N, 158° 27' 12.5388" E
Код аэродрома ИКАО
UHPP
Код аэродрома RU
УХПП
Координаты
N53.17018° E158.45348°
Превышение над уровнем моря
40
Основная полоса
16R/34L
Курс магнитный
163,7/343,7
Длина основной ВПП
3410
Ширина основной ВПП
60
Покрытие основной ВПП
Твёрдое (железобетон)
Освещение ВПП
Постоянное
Тип: 
Аэродром
Класс аэродрома: 
Международный
Принадлежность: 
ГА
Статус: 
Действующий
Сайт: 
airport-pkc.ru
Страна: 
Россия
Регион: 
Камчатский край
Город: 
Петропавловск-Камчатский
Дополнительная информация: 
Военный индекс: ЬХПП/XHPP. Оператор: ОАО «КАП» (Камчатское авиапредприятие). Совместного базирования (ФАВТ/МОРФ/ФСБ). 1 апреля 2012 началась реконструкция закрытой в 1970-е ИВПП 16R/34L, которая затянулась из-за мошенничества.
Схемы аэропортов: 
Погода: 

Авиационная погода в Елизово

Регион: 
Погода METAR: 
UHPP 262030Z 05003MPS 350V090 9999 SCT046 M11/M13 Q1010 R34L/490143 NOSIG RMK MT OBSC QFE754/1006
Время наблюдения
2021-02-26T20:30:00Z
Температура C
-11.0
Точка росы
-13.0
Направление ветра
50
Скорость ветра (узлы)
6
Метео видимость
6.21
Явления погоды
Условия полета
VFR
Аэропорт подробнее: 

Найти трансфер

С помощью этой формы Вы можете найти трансфер из аэропорта Елизово в город, аэропорт или вокзал:

Карта места

Javascript is required to view this map.

Погода в аэропортах:

Авиационная погода в Актобе

Регион: 
Погода METAR: 
UATT 262030Z 14007MPS 7000 -SN DRSN BKN048 M15/M18 Q1016 R12/820255 NOSIG RMK QFE743/0990
Время наблюдения
2021-02-26T20:30:00Z
Температура C
-15.0
Точка росы
-18.0
Направление ветра
140
Скорость ветра (узлы)
14
Метео видимость
4.35
Явления погоды
-SN DRSN
Условия полета
MVFR
Аэропорт подробнее: 

Авиационная погода в Хомутово

Регион: 
Погода METAR: 
UHSS 262030Z 30001MPS 9999 -SHSN SCT013CB M18/M20 Q1025 R01/810365 NOSIG RMK MT OBSC QFE767/1023
Время наблюдения
2021-02-26T20:30:00Z
Температура C
-18.0
Точка росы
-20.0
Направление ветра
300
Скорость ветра (узлы)
2
Метео видимость
6.21
Явления погоды
-SHSN
Условия полета
VFR
Аэропорт подробнее: 

Авиационная погода в Пулково

Регион: 
Погода METAR: 
ULLI 262030Z 29004MPS 5000 BR OVC002 01/01 Q1005 R28R/290050 NOSIG RMK QBB070 OBST OBSC
Время наблюдения
2021-02-26T20:30:00Z
Температура C
1.0
Точка росы
1.0
Направление ветра
290
Скорость ветра (узлы)
8
Метео видимость
3.11
Явления погоды
BR
Условия полета
LIFR
Аэропорт подробнее: 

Авиационная погода в Ярославле

Регион: 
Погода METAR: 
UUDL 262030Z 27006MPS 9999 -RA OVC010 01/00 Q0993 R23/////// NOSIG RMK QFE737
Время наблюдения
2021-02-26T20:30:00Z
Температура C
1.0
Точка росы
0.0
Направление ветра
270
Скорость ветра (узлы)
12
Метео видимость
6.21
Явления погоды
-RA
Условия полета
MVFR
Аэропорт подробнее: